sensor_id;sensor_type;location;lat;lon;timestamp;pressure;altitude;pressure_sealevel;temperature;humidity
74615;BME280;63121;51.458;-0.110;2023-01-19T00:00:36;100449.69;;;6.66;57.73
74615;BME280;63121;51.458;-0.110;2023-01-19T00:03:03;100457.31;;;6.19;58.75
74615;BME280;63121;51.458;-0.110;2023-01-19T00:05:28;100452.19;;;6.28;59.26
74615;BME280;63121;51.458;-0.110;2023-01-19T00:07:54;100453.88;;;6.20;59.38
74615;BME280;63121;51.458;-0.110;2023-01-19T00:10:19;100453.84;;;6.06;59.90
74615;BME280;63121;51.458;-0.110;2023-01-19T00:12:44;100453.03;;;6.25;59.48
74615;BME280;63121;51.458;-0.110;2023-01-19T00:15:10;100449.56;;;6.06;59.88
74615;BME280;63121;51.458;-0.110;2023-01-19T00:17:35;100448.72;;;6.06;59.42
74615;BME280;63121;51.458;-0.110;2023-01-19T00:20:01;100454.72;;;6.14;59.21
74615;BME280;63121;51.458;-0.110;2023-01-19T00:22:28;100453.88;;;6.17;59.16
74615;BME280;63121;51.458;-0.110;2023-01-19T00:24:53;100448.63;;;5.80;60.33
74615;BME280;63121;51.458;-0.110;2023-01-19T00:27:18;100463.13;;;5.82;60.44
74615;BME280;63121;51.458;-0.110;2023-01-19T00:29:44;100458.78;;;5.69;60.99
74615;BME280;63121;51.458;-0.110;2023-01-19T00:32:09;100457.09;;;5.73;60.56
74615;BME280;63121;51.458;-0.110;2023-01-19T00:34:34;100456.28;;;5.78;60.20
74615;BME280;63121;51.458;-0.110;2023-01-19T00:37:08;100461.53;;;6.01;59.92
74615;BME280;63121;51.458;-0.110;2023-01-19T00:39:33;100451.28;;;6.09;59.73
74615;BME280;63121;51.458;-0.110;2023-01-19T00:41:59;100460.59;;;5.87;59.96
74615;BME280;63121;51.458;-0.110;2023-01-19T00:44:43;100460.72;;;6.16;59.32
74615;BME280;63121;51.458;-0.110;2023-01-19T00:47:08;100453.94;;;6.30;58.88
74615;BME280;63121;51.458;-0.110;2023-01-19T00:49:34;100462.41;;;6.11;58.89
74615;BME280;63121;51.458;-0.110;2023-01-19T00:51:59;100458.09;;;5.98;59.54
74615;BME280;63121;51.458;-0.110;2023-01-19T00:54:24;100451.34;;;6.38;58.17
74615;BME280;63121;51.458;-0.110;2023-01-19T00:56:50;100450.38;;;5.93;59.50
74615;BME280;63121;51.458;-0.110;2023-01-19T00:59:15;100456.44;;;6.12;59.06
74615;BME280;63121;51.458;-0.110;2023-01-19T01:01:40;100459.03;;;6.34;58.45
74615;BME280;63121;51.458;-0.110;2023-01-19T01:04:06;100456.41;;;6.04;58.72
74615;BME280;63121;51.458;-0.110;2023-01-19T01:06:31;100457.94;;;5.73;59.82
74615;BME280;63121;51.458;-0.110;2023-01-19T01:08:57;100453.00;;;6.07;59.46
74615;BME280;63121;51.458;-0.110;2023-01-19T01:11:22;100457.13;;;5.77;59.76
74615;BME280;63121;51.458;-0.110;2023-01-19T01:13:47;100459.72;;;5.85;59.72
74615;BME280;63121;51.458;-0.110;2023-01-19T01:16:14;100456.41;;;6.06;59.37
74615;BME280;63121;51.458;-0.110;2023-01-19T01:18:41;100463.97;;;5.86;59.47
74615;BME280;63121;51.458;-0.110;2023-01-19T01:21:07;100458.84;;;5.78;60.50
74615;BME280;63121;51.458;-0.110;2023-01-19T01:23:33;100455.22;;;5.36;61.50
74615;BME280;63121;51.458;-0.110;2023-01-19T01:25:58;100464.66;;;5.48;60.99
74615;BME280;63121;51.458;-0.110;2023-01-19T01:28:24;100473.06;;;5.27;62.12
74615;BME280;63121;51.458;-0.110;2023-01-19T01:30:54;100459.72;;;5.80;59.63
74615;BME280;63121;51.458;-0.110;2023-01-19T01:33:20;100467.84;;;5.08;62.21
74615;BME280;63121;51.458;-0.110;2023-01-19T01:35:47;100467.13;;;5.33;61.74
74615;BME280;63121;51.458;-0.110;2023-01-19T01:38:14;100463.75;;;5.34;61.35
74615;BME280;63121;51.458;-0.110;2023-01-19T01:40:40;100472.16;;;5.20;61.80
74615;BME280;63121;51.458;-0.110;2023-01-19T01:43:14;100488.44;;;5.30;61.66
74615;BME280;63121;51.458;-0.110;2023-01-19T01:45:40;100470.56;;;5.36;61.37
74615;BME280;63121;51.458;-0.110;2023-01-19T01:48:26;100477.53;;;5.65;60.01
74615;BME280;63121;51.458;-0.110;2023-01-19T01:50:59;100479.94;;;5.37;60.85
74615;BME280;63121;51.458;-0.110;2023-01-19T01:56:48;100485.06;;;5.37;61.16
74615;BME280;63121;51.458;-0.110;2023-01-19T01:59:19;100481.84;;;5.69;60.15
74615;BME280;63121;51.458;-0.110;2023-01-19T02:01:52;100472.53;;;5.85;59.39
74615;BME280;63121;51.458;-0.110;2023-01-19T02:04:39;100477.75;;;5.97;59.23
74615;BME280;63121;51.458;-0.110;2023-01-19T02:07:10;100474.31;;;6.00;58.71
74615;BME280;63121;51.458;-0.110;2023-01-19T02:09:54;100475.09;;;5.89;59.14
74615;BME280;63121;51.458;-0.110;2023-01-19T02:12:38;100479.47;;;6.01;58.10
74615;BME280;63121;51.458;-0.110;2023-01-19T02:15:22;100482.00;;;5.98;58.73
74615;BME280;63121;51.458;-0.110;2023-01-19T02:17:47;100480.31;;;6.03;58.54
74615;BME280;63121;51.458;-0.110;2023-01-19T02:20:13;100478.63;;;6.08;58.60
74615;BME280;63121;51.458;-0.110;2023-01-19T02:22:48;100475.25;;;6.23;57.49
74615;BME280;63121;51.458;-0.110;2023-01-19T02:25:15;100477.75;;;5.99;58.00
74615;BME280;63121;51.458;-0.110;2023-01-19T02:27:41;100479.50;;;6.14;57.74
74615;BME280;63121;51.458;-0.110;2023-01-19T02:30:07;100481.97;;;5.90;58.48
74615;BME280;63121;51.458;-0.110;2023-01-19T02:32:34;100484.56;;;6.00;58.52
74615;BME280;63121;51.458;-0.110;2023-01-19T02:34:59;100493.72;;;5.58;59.50
74615;BME280;63121;51.458;-0.110;2023-01-19T02:37:25;100483.44;;;5.48;60.27
74615;BME280;63121;51.458;-0.110;2023-01-19T02:39:57;100487.91;;;5.88;58.98
74615;BME280;63121;51.458;-0.110;2023-01-19T02:42:28;100494.63;;;5.64;59.92
74615;BME280;63121;51.458;-0.110;2023-01-19T02:44:57;100493.88;;;5.82;59.42
74615;BME280;63121;51.458;-0.110;2023-01-19T02:47:22;100494.66;;;5.75;59.42
74615;BME280;63121;51.458;-0.110;2023-01-19T02:49:55;100492.31;;;6.15;58.42
74615;BME280;63121;51.458;-0.110;2023-01-19T02:52:21;100491.31;;;5.90;59.02
74615;BME280;63121;51.458;-0.110;2023-01-19T02:55:23;100485.31;;;5.83;59.35
74615;BME280;63121;51.458;-0.110;2023-01-19T03:00:29;100490.44;;;5.80;58.74
74615;BME280;63121;51.458;-0.110;2023-01-19T03:05:44;100494.53;;;5.52;59.68
74615;BME280;63121;51.458;-0.110;2023-01-19T03:11:05;100486.66;;;5.20;60.86
74615;BME280;63121;51.458;-0.110;2023-01-19T03:16:17;100490.38;;;5.71;59.37
74615;BME280;63121;51.458;-0.110;2023-01-19T03:18:48;100491.06;;;5.38;60.13
74615;BME280;63121;51.458;-0.110;2023-01-19T03:21:16;100496.19;;;5.41;60.37
74615;BME280;63121;51.458;-0.110;2023-01-19T03:23:45;100495.19;;;5.20;60.67
74615;BME280;63121;51.458;-0.110;2023-01-19T03:26:15;100497.81;;;5.28;60.92
74615;BME280;63121;51.458;-0.110;2023-01-19T03:28:43;100496.13;;;5.30;60.41
74615;BME280;63121;51.458;-0.110;2023-01-19T03:31:14;100510.38;;;4.99;61.77
74615;BME280;63121;51.458;-0.110;2023-01-19T03:33:42;100500.50;;;5.46;60.18
74615;BME280;63121;51.458;-0.110;2023-01-19T03:36:14;100497.94;;;5.46;59.72
74615;BME280;63121;51.458;-0.110;2023-01-19T03:38:42;100500.13;;;4.94;60.96
74615;BME280;63121;51.458;-0.110;2023-01-19T03:41:12;100496.69;;;4.95;61.21
74615;BME280;63121;51.458;-0.110;2023-01-19T03:43:42;100494.34;;;5.21;60.74
74615;BME280;63121;51.458;-0.110;2023-01-19T03:46:08;100489.25;;;5.24;60.75
74615;BME280;63121;51.458;-0.110;2023-01-19T03:48:41;100497.00;;;5.37;60.71
74615;BME280;63121;51.458;-0.110;2023-01-19T03:51:08;100500.38;;;5.25;60.68
74615;BME280;63121;51.458;-0.110;2023-01-19T03:53:34;100507.03;;;5.06;61.01
74615;BME280;63121;51.458;-0.110;2023-01-19T03:55:59;100504.16;;;4.72;62.07
74615;BME280;63121;51.458;-0.110;2023-01-19T03:58:25;100498.66;;;5.25;60.37
74615;BME280;63121;51.458;-0.110;2023-01-19T04:00:50;100505.34;;;5.09;60.68
74615;BME280;63121;51.458;-0.110;2023-01-19T04:03:17;100504.59;;;5.24;60.53
74615;BME280;63121;51.458;-0.110;2023-01-19T04:05:43;100506.88;;;4.89;61.82
74615;BME280;63121;51.458;-0.110;2023-01-19T04:08:09;100509.59;;;5.06;61.19
74615;BME280;63121;51.458;-0.110;2023-01-19T04:10:35;100505.53;;;5.34;60.15
74615;BME280;63121;51.458;-0.110;2023-01-19T04:13:01;100504.53;;;5.11;60.86
74615;BME280;63121;51.458;-0.110;2023-01-19T04:15:27;100508.94;;;5.33;60.33
74615;BME280;63121;51.458;-0.110;2023-01-19T04:17:53;100505.09;;;4.79;60.98
74615;BME280;63121;51.458;-0.110;2023-01-19T04:20:18;100498.50;;;5.07;60.94
74615;BME280;63121;51.458;-0.110;2023-01-19T04:22:46;100504.00;;;5.62;59.38
74615;BME280;63121;51.458;-0.110;2023-01-19T04:25:11;100502.69;;;4.97;60.85
74615;BME280;63121;51.458;-0.110;2023-01-19T04:27:36;100503.81;;;5.35;59.83
74615;BME280;63121;51.458;-0.110;2023-01-19T04:30:03;100504.44;;;5.00;60.83
74615;BME280;63121;51.458;-0.110;2023-01-19T04:32:29;100514.00;;;5.27;59.76
74615;BME280;63121;51.458;-0.110;2023-01-19T04:34:55;100512.41;;;5.41;59.52
74615;BME280;63121;51.458;-0.110;2023-01-19T04:37:21;100513.28;;;5.48;59.12
74615;BME280;63121;51.458;-0.110;2023-01-19T04:39:46;100514.19;;;5.56;58.77
74615;BME280;63121;51.458;-0.110;2023-01-19T04:42:12;100508.94;;;5.33;59.42
74615;BME280;63121;51.458;-0.110;2023-01-19T04:44:37;100508.72;;;5.04;60.96
74615;BME280;63121;51.458;-0.110;2023-01-19T04:47:03;100508.16;;;5.45;59.21
74615;BME280;63121;51.458;-0.110;2023-01-19T04:49:28;100508.72;;;5.05;60.24
74615;BME280;63121;51.458;-0.110;2023-01-19T04:51:53;100504.66;;;5.30;59.45
74615;BME280;63121;51.458;-0.110;2023-01-19T04:54:19;100512.06;;;4.97;60.33
74615;BME280;63121;51.458;-0.110;2023-01-19T04:56:45;100502.13;;;5.35;58.92
74615;BME280;63121;51.458;-0.110;2023-01-19T04:59:11;100503.03;;;5.42;59.27
74615;BME280;63121;51.458;-0.110;2023-01-19T05:01:36;100502.19;;;5.47;58.85
74615;BME280;63121;51.458;-0.110;2023-01-19T05:04:02;100504.63;;;5.29;59.06
74615;BME280;63121;51.458;-0.110;2023-01-19T05:06:30;100501.38;;;5.48;59.15
74615;BME280;63121;51.458;-0.110;2023-01-19T05:08:56;100494.63;;;5.64;58.45
74615;BME280;63121;51.458;-0.110;2023-01-19T05:11:21;100509.22;;;5.76;57.86
74615;BME280;63121;51.458;-0.110;2023-01-19T05:13:46;100503.06;;;5.46;59.01
74615;BME280;63121;51.458;-0.110;2023-01-19T05:16:12;100502.28;;;5.57;58.52
74615;BME280;63121;51.458;-0.110;2023-01-19T05:18:38;100503.16;;;5.66;58.12
74615;BME280;63121;51.458;-0.110;2023-01-19T05:21:05;100497.81;;;5.31;59.10
74615;BME280;63121;51.458;-0.110;2023-01-19T05:23:31;100504.78;;;5.50;58.48
74615;BME280;63121;51.458;-0.110;2023-01-19T05:25:57;100505.72;;;5.62;58.50
74615;BME280;63121;51.458;-0.110;2023-01-19T05:28:28;100507.34;;;5.49;58.53
74615;BME280;63121;51.458;-0.110;2023-01-19T05:30:54;100494.31;;;5.18;59.59
74615;BME280;63121;51.458;-0.110;2023-01-19T05:33:20;100500.50;;;5.46;58.76
74615;BME280;63121;51.458;-0.110;2023-01-19T05:35:48;100507.19;;;5.26;58.91
74615;BME280;63121;51.458;-0.110;2023-01-19T05:38:13;100500.53;;;5.54;58.54
74615;BME280;63121;51.458;-0.110;2023-01-19T05:40:39;100501.19;;;5.27;58.58
74615;BME280;63121;51.458;-0.110;2023-01-19T05:43:04;100500.41;;;5.33;58.96
74615;BME280;63121;51.458;-0.110;2023-01-19T05:45:29;100500.28;;;5.16;59.60
74615;BME280;63121;51.458;-0.110;2023-01-19T05:47:55;100500.19;;;5.03;59.62
74615;BME280;63121;51.458;-0.110;2023-01-19T05:50:20;100499.56;;;5.35;59.24
74615;BME280;63121;51.458;-0.110;2023-01-19T05:52:46;100498.63;;;5.21;59.71
74615;BME280;63121;51.458;-0.110;2023-01-19T05:55:12;100503.00;;;5.39;58.87
74615;BME280;63121;51.458;-0.110;2023-01-19T05:57:38;100499.53;;;5.27;59.17
74615;BME280;63121;51.458;-0.110;2023-01-19T06:00:04;100501.34;;;5.42;58.62
74615;BME280;63121;51.458;-0.110;2023-01-19T06:02:30;100497.94;;;5.48;58.47
74615;BME280;63121;51.458;-0.110;2023-01-19T06:04:55;100498.78;;;5.47;58.17
74615;BME280;63121;51.458;-0.110;2023-01-19T06:07:21;100490.22;;;5.40;58.65
74615;BME280;63121;51.458;-0.110;2023-01-19T06:09:46;100495.38;;;5.49;58.60
74615;BME280;63121;51.458;-0.110;2023-01-19T06:12:12;100486.91;;;5.57;58.42
74615;BME280;63121;51.458;-0.110;2023-01-19T06:14:37;100491.09;;;5.42;58.54
74615;BME280;63121;51.458;-0.110;2023-01-19T06:17:03;100491.03;;;5.35;59.24
74615;BME280;63121;51.458;-0.110;2023-01-19T06:19:31;100492.53;;;5.06;59.84
74615;BME280;63121;51.458;-0.110;2023-01-19T06:21:56;100487.69;;;5.46;58.77
74615;BME280;63121;51.458;-0.110;2023-01-19T06:24:22;100488.63;;;5.58;58.09
74615;BME280;63121;51.458;-0.110;2023-01-19T06:26:49;100487.75;;;5.53;57.86
74615;BME280;63121;51.458;-0.110;2023-01-19T06:29:14;100490.22;;;5.43;57.83
74615;BME280;63121;51.458;-0.110;2023-01-19T06:31:40;100484.22;;;5.37;58.30
74615;BME280;63121;51.458;-0.110;2023-01-19T06:34:07;100484.25;;;5.38;57.94
74615;BME280;63121;51.458;-0.110;2023-01-19T06:36:33;100496.16;;;5.39;58.04
74615;BME280;63121;51.458;-0.110;2023-01-19T06:38:58;100495.38;;;5.48;58.30
74615;BME280;63121;51.458;-0.110;2023-01-19T06:41:27;100496.22;;;5.45;58.93
74615;BME280;63121;51.458;-0.110;2023-01-19T06:43:53;100503.13;;;5.57;58.19
74615;BME280;63121;51.458;-0.110;2023-01-19T06:46:19;100499.75;;;5.64;58.36
74615;BME280;63121;51.458;-0.110;2023-01-19T06:48:45;100508.75;;;5.08;59.98
74615;BME280;63121;51.458;-0.110;2023-01-19T06:51:10;100509.09;;;5.58;58.70
74615;BME280;63121;51.458;-0.110;2023-01-19T06:53:35;100509.16;;;5.65;58.81
74615;BME280;63121;51.458;-0.110;2023-01-19T06:56:01;100512.34;;;5.35;59.12
74615;BME280;63121;51.458;-0.110;2023-01-19T06:58:28;100508.94;;;5.35;59.95
74615;BME280;63121;51.458;-0.110;2023-01-19T07:00:54;100509.78;;;5.32;59.64
74615;BME280;63121;51.458;-0.110;2023-01-19T07:03:21;100508.19;;;5.46;59.22
74615;BME280;63121;51.458;-0.110;2023-01-19T07:05:51;100507.94;;;5.13;59.86
74615;BME280;63121;51.458;-0.110;2023-01-19T07:08:16;100511.63;;;5.52;58.96
74615;BME280;63121;51.458;-0.110;2023-01-19T07:10:42;100522.59;;;5.35;59.86
74615;BME280;63121;51.458;-0.110;2023-01-19T07:13:07;100523.19;;;5.00;60.60
74615;BME280;63121;51.458;-0.110;2023-01-19T07:15:33;100530.09;;;5.11;60.55
74615;BME280;63121;51.458;-0.110;2023-01-19T07:17:58;100526.97;;;5.52;59.00
74615;BME280;63121;51.458;-0.110;2023-01-19T07:20:24;100528.66;;;5.48;58.94
74615;BME280;63121;51.458;-0.110;2023-01-19T07:22:55;100536.91;;;5.08;60.25
74615;BME280;63121;51.458;-0.110;2023-01-19T07:25:20;100534.31;;;5.07;60.65
74615;BME280;63121;51.458;-0.110;2023-01-19T07:27:46;100540.38;;;5.17;60.28
74615;BME280;63121;51.458;-0.110;2023-01-19T07:30:12;100531.97;;;5.32;59.72
74615;BME280;63121;51.458;-0.110;2023-01-19T07:32:40;100539.03;;;5.71;58.58
74615;BME280;63121;51.458;-0.110;2023-01-19T07:35:07;100549.09;;;5.40;59.35
74615;BME280;63121;51.458;-0.110;2023-01-19T07:37:33;100541.16;;;5.06;60.57
74615;BME280;63121;51.458;-0.110;2023-01-19T07:39:58;100546.31;;;5.14;60.63
74615;BME280;63121;51.458;-0.110;2023-01-19T07:42:24;100550.88;;;5.50;59.61
74615;BME280;63121;51.458;-0.110;2023-01-19T07:44:49;100548.22;;;5.41;59.65
74615;BME280;63121;51.458;-0.110;2023-01-19T07:47:14;100543.13;;;5.41;59.02
74615;BME280;63121;51.458;-0.110;2023-01-19T07:49:40;100549.25;;;5.66;58.59
74615;BME280;63121;51.458;-0.110;2023-01-19T07:52:05;100548.22;;;5.41;59.54
74615;BME280;63121;51.458;-0.110;2023-01-19T07:54:31;100553.59;;;5.77;58.55
74615;BME280;63121;51.458;-0.110;2023-01-19T07:56:56;100553.50;;;5.63;58.78
74615;BME280;63121;51.458;-0.110;2023-01-19T07:59:21;100556.09;;;5.67;58.60
74615;BME280;63121;51.458;-0.110;2023-01-19T08:01:47;100556.81;;;5.49;58.68
74615;BME280;63121;51.458;-0.110;2023-01-19T08:04:12;100562.06;;;5.66;58.43
74615;BME280;63121;51.458;-0.110;2023-01-19T08:06:38;100559.59;;;5.76;58.14
74615;BME280;63121;51.458;-0.110;2023-01-19T08:09:05;100559.59;;;5.82;57.83
74615;BME280;63121;51.458;-0.110;2023-01-19T08:11:31;100564.69;;;5.76;57.59
74615;BME280;63121;51.458;-0.110;2023-01-19T08:13:57;100567.28;;;5.82;57.87
74615;BME280;63121;51.458;-0.110;2023-01-19T08:16:23;100571.56;;;5.84;57.67
74615;BME280;63121;51.458;-0.110;2023-01-19T08:18:49;100563.94;;;5.90;57.29
74615;BME280;63121;51.458;-0.110;2023-01-19T08:21:14;100564.00;;;5.98;57.47
74615;BME280;63121;51.458;-0.110;2023-01-19T08:23:40;100560.44;;;5.79;57.86
74615;BME280;63121;51.458;-0.110;2023-01-19T08:26:29;100553.56;;;5.75;58.27
74615;BME280;63121;51.458;-0.110;2023-01-19T08:28:57;100564.88;;;5.99;57.60
74615;BME280;63121;51.458;-0.110;2023-01-19T08:31:23;100562.03;;;5.65;58.28
74615;BME280;63121;51.458;-0.110;2023-01-19T08:33:49;100565.59;;;5.85;57.57
74615;BME280;63121;51.458;-0.110;2023-01-19T08:36:15;100568.13;;;5.79;57.83
74615;BME280;63121;51.458;-0.110;2023-01-19T08:38:40;100569.75;;;5.66;58.38
74615;BME280;63121;51.458;-0.110;2023-01-19T08:41:09;100575.94;;;5.95;57.89
74615;BME280;63121;51.458;-0.110;2023-01-19T08:43:35;100573.09;;;5.56;59.13
74615;BME280;63121;51.458;-0.110;2023-01-19T08:46:00;100580.97;;;5.90;57.65
74615;BME280;63121;51.458;-0.110;2023-01-19T08:48:25;100580.84;;;5.65;58.01
74615;BME280;63121;51.458;-0.110;2023-01-19T08:50:51;100577.56;;;5.89;58.12
74615;BME280;63121;51.458;-0.110;2023-01-19T08:53:17;100580.97;;;5.85;58.14
74615;BME280;63121;51.458;-0.110;2023-01-19T08:55:45;100579.09;;;5.60;58.34
74615;BME280;63121;51.458;-0.110;2023-01-19T08:58:11;100592.53;;;5.29;59.83
74615;BME280;63121;51.458;-0.110;2023-01-19T09:00:37;100591.28;;;5.93;57.85
74615;BME280;63121;51.458;-0.110;2023-01-19T09:03:05;100595.63;;;5.99;57.66
74615;BME280;63121;51.458;-0.110;2023-01-19T09:05:32;100588.59;;;5.76;58.68
74615;BME280;63121;51.458;-0.110;2023-01-19T09:08:05;100589.66;;;6.09;57.27
74615;BME280;63121;51.458;-0.110;2023-01-19T09:10:32;100590.53;;;6.11;57.13
74615;BME280;63121;51.458;-0.110;2023-01-19T09:13:04;100589.63;;;5.97;57.91
74615;BME280;63121;51.458;-0.110;2023-01-19T09:15:32;100588.84;;;6.10;57.44
74615;BME280;63121;51.458;-0.110;2023-01-19T09:18:00;100591.47;;;6.22;56.75
74615;BME280;63121;51.458;-0.110;2023-01-19T09:20:26;100597.44;;;6.26;57.07
74615;BME280;63121;51.458;-0.110;2023-01-19T09:22:54;100597.31;;;6.01;58.23
74615;BME280;63121;51.458;-0.110;2023-01-19T09:25:20;100587.03;;;5.98;58.33
74615;BME280;63121;51.458;-0.110;2023-01-19T09:27:45;100584.66;;;6.30;57.54
74615;BME280;63121;51.458;-0.110;2023-01-19T09:30:11;100588.13;;;6.42;56.66
74615;BME280;63121;51.458;-0.110;2023-01-19T09:32:36;100584.72;;;6.49;57.44
74615;BME280;63121;51.458;-0.110;2023-01-19T09:35:02;100593.28;;;6.57;56.42
74615;BME280;63121;51.458;-0.110;2023-01-19T09:37:27;100592.44;;;6.66;56.81
74615;BME280;63121;51.458;-0.110;2023-01-19T09:39:52;100588.97;;;6.42;57.35
74615;BME280;63121;51.458;-0.110;2023-01-19T09:42:32;100600.78;;;6.11;58.44
74615;BME280;63121;51.458;-0.110;2023-01-19T09:45:03;100600.09;;;6.46;57.11
74615;BME280;63121;51.458;-0.110;2023-01-19T09:47:31;100604.25;;;6.19;58.01
74615;BME280;63121;51.458;-0.110;2023-01-19T09:50:03;100601.91;;;6.68;57.22
74615;BME280;63121;51.458;-0.110;2023-01-19T09:52:33;100604.47;;;6.82;56.73
74615;BME280;63121;51.458;-0.110;2023-01-19T09:55:01;100612.22;;;7.04;56.09
74615;BME280;63121;51.458;-0.110;2023-01-19T09:57:26;100612.22;;;7.05;55.99
74615;BME280;63121;51.458;-0.110;2023-01-19T09:59:54;100610.56;;;7.27;55.68
74615;BME280;63121;51.458;-0.110;2023-01-19T10:02:42;100606.25;;;7.14;55.92
74615;BME280;63121;51.458;-0.110;2023-01-19T10:05:28;100609.66;;;7.21;55.54
74615;BME280;63121;51.458;-0.110;2023-01-19T10:08:20;100611.41;;;7.46;55.37
74615;BME280;63121;51.458;-0.110;2023-01-19T10:10:54;100613.13;;;7.27;55.77
74615;BME280;63121;51.458;-0.110;2023-01-19T10:13:50;100616.53;;;7.48;55.74
74615;BME280;63121;51.458;-0.110;2023-01-19T10:16:41;100624.16;;;6.85;56.86
74615;BME280;63121;51.458;-0.110;2023-01-19T10:19:19;100621.63;;;6.94;56.96
74615;BME280;63121;51.458;-0.110;2023-01-19T10:21:49;100612.25;;;7.24;56.01
74615;BME280;63121;51.458;-0.110;2023-01-19T10:24:31;100607.09;;;7.71;55.15
74615;BME280;63121;51.458;-0.110;2023-01-19T10:27:01;100620.81;;;7.57;55.60
74615;BME280;63121;51.458;-0.110;2023-01-19T10:29:35;100627.63;;;7.07;56.82
74615;BME280;63121;51.458;-0.110;2023-01-19T10:32:13;100620.81;;;7.57;55.03
74615;BME280;63121;51.458;-0.110;2023-01-19T10:34:39;100631.09;;;7.38;55.74
74615;BME280;63121;51.458;-0.110;2023-01-19T10:37:27;100631.03;;;6.98;57.37
74615;BME280;63121;51.458;-0.110;2023-01-19T10:42:28;100625.91;;;7.17;56.73
74615;BME280;63121;51.458;-0.110;2023-01-19T10:44:53;100627.66;;;7.27;56.24
74615;BME280;63121;51.458;-0.110;2023-01-19T10:47:20;100627.66;;;7.24;56.38
74615;BME280;63121;51.458;-0.110;2023-01-19T10:49:51;100627.63;;;7.16;56.54
74615;BME280;63121;51.458;-0.110;2023-01-19T10:52:30;100625.09;;;7.41;56.21
74615;BME280;63121;51.458;-0.110;2023-01-19T10:54:58;100619.94;;;7.44;56.10
74615;BME280;63121;51.458;-0.110;2023-01-19T10:59:52;100616.50;;;7.82;54.90
74615;BME280;63121;51.458;-0.110;2023-01-19T11:02:23;100610.50;;;8.01;54.35
74615;BME280;63121;51.458;-0.110;2023-01-19T11:04:52;100607.09;;;7.73;54.62
74615;BME280;63121;51.458;-0.110;2023-01-19T11:07:21;100616.50;;;7.77;55.00
74615;BME280;63121;51.458;-0.110;2023-01-19T11:09:47;100612.19;;;8.08;54.23
74615;BME280;63121;51.458;-0.110;2023-01-19T11:12:20;100611.19;;;8.51;52.90
74615;BME280;63121;51.458;-0.110;2023-01-19T11:14:49;100609.41;;;8.71;52.21
74615;BME280;63121;51.458;-0.110;2023-01-19T11:17:22;100606.09;;;8.34;53.25
74615;BME280;63121;51.458;-0.110;2023-01-19T11:19:57;100611.19;;;8.55;52.74
74615;BME280;63121;51.458;-0.110;2023-01-19T11:22:26;100612.16;;;8.07;54.14
74615;BME280;63121;51.458;-0.110;2023-01-19T11:25:00;100608.44;;;8.94;52.89
74615;BME280;63121;51.458;-0.110;2023-01-19T11:27:26;100609.03;;;9.27;51.38
74615;BME280;63121;51.458;-0.110;2023-01-19T11:30:19;100613.84;;;8.23;53.04
74615;BME280;63121;51.458;-0.110;2023-01-19T11:32:46;100610.50;;;8.00;54.00
74615;BME280;63121;51.458;-0.110;2023-01-19T11:35:32;100604.34;;;8.53;53.19
74615;BME280;63121;51.458;-0.110;2023-01-19T11:38:12;100611.22;;;8.54;53.36
74615;BME280;63121;51.458;-0.110;2023-01-19T11:40:40;100609.47;;;8.51;52.91
74615;BME280;63121;51.458;-0.110;2023-01-19T11:43:10;100610.94;;;9.05;52.35
74615;BME280;63121;51.458;-0.110;2023-01-19T11:45:37;100611.44;;;9.48;50.97
74615;BME280;63121;51.458;-0.110;2023-01-19T11:48:03;100610.66;;;10.31;48.65
74615;BME280;63121;51.458;-0.110;2023-01-19T11:50:43;100606.50;;;10.15;49.56
74615;BME280;63121;51.458;-0.110;2023-01-19T11:53:26;100605.38;;;10.42;47.80
74615;BME280;63121;51.458;-0.110;2023-01-19T11:58:27;100597.94;;;10.86;47.41
74615;BME280;63121;51.458;-0.110;2023-01-19T12:00:59;100610.75;;;10.19;48.30
74615;BME280;63121;51.458;-0.110;2023-01-19T12:03:30;100596.50;;;10.62;47.89
74615;BME280;63121;51.458;-0.110;2023-01-19T12:06:09;100599.63;;;10.14;48.90
74615;BME280;63121;51.458;-0.110;2023-01-19T12:08:48;100602.03;;;10.35;48.77
74615;BME280;63121;51.458;-0.110;2023-01-19T12:11:18;100599.25;;;9.70;49.89
74615;BME280;63121;51.458;-0.110;2023-01-19T12:13:45;100595.19;;;9.45;50.56
74615;BME280;63121;51.458;-0.110;2023-01-19T12:16:20;100584.78;;;9.52;49.55
74615;BME280;63121;51.458;-0.110;2023-01-19T12:18:54;100596.38;;;9.98;49.30
74615;BME280;63121;51.458;-0.110;2023-01-19T12:21:21;100587.38;;;10.34;48.46
74615;BME280;63121;51.458;-0.110;2023-01-19T12:29:14;100579.81;;;10.19;48.88
74615;BME280;63121;51.458;-0.110;2023-01-19T12:31:41;100578.72;;;9.56;50.36
74615;BME280;63121;51.458;-0.110;2023-01-19T12:36:49;100565.84;;;9.58;49.71
74615;BME280;63121;51.458;-0.110;2023-01-19T12:39:18;100562.53;;;10.27;48.60
74615;BME280;63121;51.458;-0.110;2023-01-19T12:41:44;100564.91;;;10.44;47.85
74615;BME280;63121;51.458;-0.110;2023-01-19T12:46:45;100563.88;;;9.82;49.06
74615;BME280;63121;51.458;-0.110;2023-01-19T12:55:06;100567.88;;;9.22;50.05
74615;BME280;63121;51.458;-0.110;2023-01-19T13:02:48;100566.63;;;9.65;49.89
74615;BME280;63121;51.458;-0.110;2023-01-19T13:13:41;100562.75;;;9.18;50.92
74615;BME280;63121;51.458;-0.110;2023-01-19T13:21:36;100555.59;;;9.53;50.48
74615;BME280;63121;51.458;-0.110;2023-01-19T13:29:17;100557.31;;;9.51;49.26
74615;BME280;63121;51.458;-0.110;2023-01-19T13:31:44;100551.72;;;9.02;50.29
74615;BME280;63121;51.458;-0.110;2023-01-19T13:34:24;100550.31;;;9.64;49.77
74615;BME280;63121;51.458;-0.110;2023-01-19T13:36:52;100557.31;;;10.32;48.49
74615;BME280;63121;51.458;-0.110;2023-01-19T13:39:29;100560.28;;;9.96;48.69
74615;BME280;63121;51.458;-0.110;2023-01-19T13:42:01;100555.13;;;9.96;49.07
74615;BME280;63121;51.458;-0.110;2023-01-19T13:44:34;100568.06;;;9.93;49.09
74615;BME280;63121;51.458;-0.110;2023-01-19T13:47:04;100565.50;;;9.93;49.13
74615;BME280;63121;51.458;-0.110;2023-01-19T13:49:38;100570.50;;;9.18;50.25
74615;BME280;63121;51.458;-0.110;2023-01-19T13:54:51;100565.50;;;9.90;48.65
74615;BME280;63121;51.458;-0.110;2023-01-19T13:57:31;100562.72;;;10.09;48.10
74615;BME280;63121;51.458;-0.110;2023-01-19T14:02:37;100567.47;;;9.65;48.23
74615;BME280;63121;51.458;-0.110;2023-01-19T14:05:35;100563.06;;;9.78;48.00